sensor_id;sensor_type;location;lat;lon;timestamp;pressure;altitude;pressure_sealevel;temperature;humidity
68320;BME280;55168;51.120;17.024;2023-07-31T00:00:00;99830;;;16.6;100.0
68320;BME280;55168;51.120;17.024;2023-07-31T00:01:00;99820;;;16.6;100.0
68320;BME280;55168;51.120;17.024;2023-07-31T00:02:00;99830;;;16.6;100.0
68320;BME280;55168;51.120;17.024;2023-07-31T00:03:00;99830;;;16.6;100.0
68320;BME280;55168;51.120;17.024;2023-07-31T00:04:00;99830;;;16.6;100.0
68320;BME280;55168;51.120;17.024;2023-07-31T00:05:00;99830;;;16.6;100.0
68320;BME280;55168;51.120;17.024;2023-07-31T00:06:00;99830;;;16.6;100.0
68320;BME280;55168;51.120;17.024;2023-07-31T00:07:00;99830;;;16.6;100.0
68320;BME280;55168;51.120;17.024;2023-07-31T00:08:00;99830;;;16.6;100.0
68320;BME280;55168;51.120;17.024;2023-07-31T00:09:00;99830;;;16.6;100.0
68320;BME280;55168;51.120;17.024;2023-07-31T00:10:00;99830;;;16.5;100.0
68320;BME280;55168;51.120;17.024;2023-07-31T00:11:00;99840;;;16.5;100.0
68320;BME280;55168;51.120;17.024;2023-07-31T00:12:00;99830;;;16.5;100.0
68320;BME280;55168;51.120;17.024;2023-07-31T00:13:00;99830;;;16.6;100.0
68320;BME280;55168;51.120;17.024;2023-07-31T00:14:00;99830;;;16.6;100.0
68320;BME280;55168;51.120;17.024;2023-07-31T00:15:00;99840;;;16.6;100.0
68320;BME280;55168;51.120;17.024;2023-07-31T00:16:00;99830;;;16.6;100.0
68320;BME280;55168;51.120;17.024;2023-07-31T00:17:01;99840;;;16.6;100.0
68320;BME280;55168;51.120;17.024;2023-07-31T00:18:00;99830;;;16.6;100.0
68320;BME280;55168;51.120;17.024;2023-07-31T00:19:00;99830;;;16.6;100.0
68320;BME280;55168;51.120;17.024;2023-07-31T00:20:00;99830;;;16.6;100.0
68320;BME280;55168;51.120;17.024;2023-07-31T00:21:00;99830;;;16.6;100.0
68320;BME280;55168;51.120;17.024;2023-07-31T00:22:00;99830;;;16.6;100.0
68320;BME280;55168;51.120;17.024;2023-07-31T00:23:00;99840;;;16.6;100.0
68320;BME280;55168;51.120;17.024;2023-07-31T00:24:00;99830;;;16.6;100.0
68320;BME280;55168;51.120;17.024;2023-07-31T00:25:00;99830;;;16.6;100.0
68320;BME280;55168;51.120;17.024;2023-07-31T00:26:00;99830;;;16.5;100.0
68320;BME280;55168;51.120;17.024;2023-07-31T00:27:00;99830;;;16.6;100.0
68320;BME280;55168;51.120;17.024;2023-07-31T00:28:00;99830;;;16.5;100.0
68320;BME280;55168;51.120;17.024;2023-07-31T00:29:00;99830;;;16.6;100.0
68320;BME280;55168;51.120;17.024;2023-07-31T00:30:00;99830;;;16.6;100.0
68320;BME280;55168;51.120;17.024;2023-07-31T00:31:00;99830;;;16.5;100.0
68320;BME280;55168;51.120;17.024;2023-07-31T00:32:00;99830;;;16.5;100.0
68320;BME280;55168;51.120;17.024;2023-07-31T00:33:00;99830;;;16.5;100.0
68320;BME280;55168;51.120;17.024;2023-07-31T00:34:00;99830;;;16.5;100.0
68320;BME280;55168;51.120;17.024;2023-07-31T00:35:00;99830;;;16.5;100.0
68320;BME280;55168;51.120;17.024;2023-07-31T00:36:00;99830;;;16.5;100.0
68320;BME280;55168;51.120;17.024;2023-07-31T00:37:00;99830;;;16.5;100.0
68320;BME280;55168;51.120;17.024;2023-07-31T00:38:00;99830;;;16.5;100.0
68320;BME280;55168;51.120;17.024;2023-07-31T00:39:00;99830;;;16.5;100.0
68320;BME280;55168;51.120;17.024;2023-07-31T00:40:00;99830;;;16.5;100.0
68320;BME280;55168;51.120;17.024;2023-07-31T00:41:00;99830;;;16.5;100.0
68320;BME280;55168;51.120;17.024;2023-07-31T00:42:00;99830;;;16.5;100.0
68320;BME280;55168;51.120;17.024;2023-07-31T00:43:00;99830;;;16.5;100.0
68320;BME280;55168;51.120;17.024;2023-07-31T00:44:00;99830;;;16.5;100.0
68320;BME280;55168;51.120;17.024;2023-07-31T00:45:00;99830;;;16.4;100.0
68320;BME280;55168;51.120;17.024;2023-07-31T00:46:00;99830;;;16.4;100.0
68320;BME280;55168;51.120;17.024;2023-07-31T00:47:00;99830;;;16.4;100.0
68320;BME280;55168;51.120;17.024;2023-07-31T00:48:00;99830;;;16.4;100.0
68320;BME280;55168;51.120;17.024;2023-07-31T00:49:00;99830;;;16.4;100.0
68320;BME280;55168;51.120;17.024;2023-07-31T00:50:00;99830;;;16.4;100.0
68320;BME280;55168;51.120;17.024;2023-07-31T00:51:00;99830;;;16.4;100.0
68320;BME280;55168;51.120;17.024;2023-07-31T00:52:00;99830;;;16.4;100.0
68320;BME280;55168;51.120;17.024;2023-07-31T00:53:00;99830;;;16.4;100.0
68320;BME280;55168;51.120;17.024;2023-07-31T00:54:00;99830;;;16.5;100.0
68320;BME280;55168;51.120;17.024;2023-07-31T00:55:00;99830;;;16.4;100.0
68320;BME280;55168;51.120;17.024;2023-07-31T00:56:00;99830;;;16.4;100.0
68320;BME280;55168;51.120;17.024;2023-07-31T00:57:00;99830;;;16.4;100.0
68320;BME280;55168;51.120;17.024;2023-07-31T00:58:00;99830;;;16.4;100.0
68320;BME280;55168;51.120;17.024;2023-07-31T00:59:00;99830;;;16.4;100.0
68320;BME280;55168;51.120;17.024;2023-07-31T01:00:00;99830;;;16.4;100.0
68320;BME280;55168;51.120;17.024;2023-07-31T01:01:00;99830;;;16.4;100.0
68320;BME280;55168;51.120;17.024;2023-07-31T01:02:00;99840;;;16.3;100.0
68320;BME280;55168;51.120;17.024;2023-07-31T01:03:00;99830;;;16.4;100.0
68320;BME280;55168;51.120;17.024;2023-07-31T01:04:00;99830;;;16.3;100.0
68320;BME280;55168;51.120;17.024;2023-07-31T01:05:00;99830;;;16.3;100.0
68320;BME280;55168;51.120;17.024;2023-07-31T01:06:04;99820;;;16.3;100.0
68320;BME280;55168;51.120;17.024;2023-07-31T01:08:04;99830;;;16.4;100.0
68320;BME280;55168;51.120;17.024;2023-07-31T01:10:02;99830;;;16.3;100.0
68320;BME280;55168;51.120;17.024;2023-07-31T01:11:01;99830;;;16.4;100.0
68320;BME280;55168;51.120;17.024;2023-07-31T01:12:01;99820;;;16.3;100.0
68320;BME280;55168;51.120;17.024;2023-07-31T01:13:00;99820;;;16.4;100.0
68320;BME280;55168;51.120;17.024;2023-07-31T01:14:00;99820;;;16.3;100.0
68320;BME280;55168;51.120;17.024;2023-07-31T01:15:08;99830;;;16.3;100.0
68320;BME280;55168;51.120;17.024;2023-07-31T01:16:00;99830;;;16.3;100.0
68320;BME280;55168;51.120;17.024;2023-07-31T01:17:00;99820;;;16.2;100.0
68320;BME280;55168;51.120;17.024;2023-07-31T01:18:00;99820;;;16.2;100.0
68320;BME280;55168;51.120;17.024;2023-07-31T01:19:00;99830;;;16.3;100.0
68320;BME280;55168;51.120;17.024;2023-07-31T01:20:02;99830;;;16.3;100.0
68320;BME280;55168;51.120;17.024;2023-07-31T01:21:03;99830;;;16.2;100.0
68320;BME280;55168;51.120;17.024;2023-07-31T01:22:11;99830;;;16.2;100.0
68320;BME280;55168;51.120;17.024;2023-07-31T01:25:05;99830;;;16.2;100.0
68320;BME280;55168;51.120;17.024;2023-07-31T01:26:03;99840;;;16.3;100.0
68320;BME280;55168;51.120;17.024;2023-07-31T01:27:17;99830;;;16.2;100.0
68320;BME280;55168;51.120;17.024;2023-07-31T01:28:03;99830;;;16.2;100.0
68320;BME280;55168;51.120;17.024;2023-07-31T01:29:01;99830;;;16.3;100.0
68320;BME280;55168;51.120;17.024;2023-07-31T01:30:03;99830;;;16.3;100.0
68320;BME280;55168;51.120;17.024;2023-07-31T01:31:00;99830;;;16.3;100.0
68320;BME280;55168;51.120;17.024;2023-07-31T01:32:01;99830;;;16.3;100.0
68320;BME280;55168;51.120;17.024;2023-07-31T01:33:00;99830;;;16.3;100.0
68320;BME280;55168;51.120;17.024;2023-07-31T01:34:01;99830;;;16.3;100.0
68320;BME280;55168;51.120;17.024;2023-07-31T01:35:00;99830;;;16.3;100.0
68320;BME280;55168;51.120;17.024;2023-07-31T01:36:00;99830;;;16.3;100.0
68320;BME280;55168;51.120;17.024;2023-07-31T01:37:00;99830;;;16.3;100.0
68320;BME280;55168;51.120;17.024;2023-07-31T01:38:00;99830;;;16.3;100.0
68320;BME280;55168;51.120;17.024;2023-07-31T01:39:00;99830;;;16.3;100.0
68320;BME280;55168;51.120;17.024;2023-07-31T01:40:00;99830;;;16.3;100.0
68320;BME280;55168;51.120;17.024;2023-07-31T01:41:00;99830;;;16.3;100.0
68320;BME280;55168;51.120;17.024;2023-07-31T01:42:00;99830;;;16.3;100.0
68320;BME280;55168;51.120;17.024;2023-07-31T01:43:00;99830;;;16.3;100.0
68320;BME280;55168;51.120;17.024;2023-07-31T01:44:00;99830;;;16.3;100.0
68320;BME280;55168;51.120;17.024;2023-07-31T01:45:00;99830;;;16.3;100.0
68320;BME280;55168;51.120;17.024;2023-07-31T01:46:00;99830;;;16.4;100.0
68320;BME280;55168;51.120;17.024;2023-07-31T01:47:00;99830;;;16.4;100.0
68320;BME280;55168;51.120;17.024;2023-07-31T01:48:00;99830;;;16.4;100.0
68320;BME280;55168;51.120;17.024;2023-07-31T01:49:00;99830;;;16.4;100.0
68320;BME280;55168;51.120;17.024;2023-07-31T01:50:00;99830;;;16.3;100.0
68320;BME280;55168;51.120;17.024;2023-07-31T01:51:00;99830;;;16.3;100.0
68320;BME280;55168;51.120;17.024;2023-07-31T01:52:00;99830;;;16.3;100.0
68320;BME280;55168;51.120;17.024;2023-07-31T01:53:00;99830;;;16.3;100.0
68320;BME280;55168;51.120;17.024;2023-07-31T01:54:00;99830;;;16.3;100.0
68320;BME280;55168;51.120;17.024;2023-07-31T01:55:00;99820;;;16.2;100.0
68320;BME280;55168;51.120;17.024;2023-07-31T01:56:00;99830;;;16.2;100.0
68320;BME280;55168;51.120;17.024;2023-07-31T01:57:00;99820;;;16.2;100.0
68320;BME280;55168;51.120;17.024;2023-07-31T01:58:00;99820;;;16.2;100.0
68320;BME280;55168;51.120;17.024;2023-07-31T01:59:00;99820;;;16.2;100.0
68320;BME280;55168;51.120;17.024;2023-07-31T02:00:00;99820;;;16.2;100.0
68320;BME280;55168;51.120;17.024;2023-07-31T02:01:00;99820;;;16.2;100.0
68320;BME280;55168;51.120;17.024;2023-07-31T02:02:00;99820;;;16.3;100.0
68320;BME280;55168;51.120;17.024;2023-07-31T02:03:00;99820;;;16.3;100.0
68320;BME280;55168;51.120;17.024;2023-07-31T02:04:00;99820;;;16.3;100.0
68320;BME280;55168;51.120;17.024;2023-07-31T02:05:00;99820;;;16.3;100.0
68320;BME280;55168;51.120;17.024;2023-07-31T02:06:00;99820;;;16.3;100.0
68320;BME280;55168;51.120;17.024;2023-07-31T02:07:00;99820;;;16.3;100.0
68320;BME280;55168;51.120;17.024;2023-07-31T02:08:00;99820;;;16.3;100.0
68320;BME280;55168;51.120;17.024;2023-07-31T02:09:00;99820;;;16.3;100.0
68320;BME280;55168;51.120;17.024;2023-07-31T02:10:00;99820;;;16.3;100.0
68320;BME280;55168;51.120;17.024;2023-07-31T02:11:00;99820;;;16.2;100.0
68320;BME280;55168;51.120;17.024;2023-07-31T02:12:00;99820;;;16.2;100.0
68320;BME280;55168;51.120;17.024;2023-07-31T02:13:00;99830;;;16.2;100.0
68320;BME280;55168;51.120;17.024;2023-07-31T02:14:00;99830;;;16.2;100.0
68320;BME280;55168;51.120;17.024;2023-07-31T02:15:00;99830;;;16.2;100.0
68320;BME280;55168;51.120;17.024;2023-07-31T02:16:00;99830;;;16.2;100.0
68320;BME280;55168;51.120;17.024;2023-07-31T02:17:00;99830;;;16.2;100.0
68320;BME280;55168;51.120;17.024;2023-07-31T02:18:00;99830;;;16.2;100.0
68320;BME280;55168;51.120;17.024;2023-07-31T02:19:00;99830;;;16.2;100.0
68320;BME280;55168;51.120;17.024;2023-07-31T02:20:00;99830;;;16.2;100.0
68320;BME280;55168;51.120;17.024;2023-07-31T02:21:00;99830;;;16.2;100.0
68320;BME280;55168;51.120;17.024;2023-07-31T02:22:00;99830;;;16.2;100.0
68320;BME280;55168;51.120;17.024;2023-07-31T02:23:00;99830;;;16.2;100.0
68320;BME280;55168;51.120;17.024;2023-07-31T02:24:00;99830;;;16.2;100.0
68320;BME280;55168;51.120;17.024;2023-07-31T02:25:00;99840;;;16.2;100.0
68320;BME280;55168;51.120;17.024;2023-07-31T02:26:00;99830;;;16.2;100.0
68320;BME280;55168;51.120;17.024;2023-07-31T02:27:00;99830;;;16.2;100.0
68320;BME280;55168;51.120;17.024;2023-07-31T02:28:00;99830;;;16.2;100.0
68320;BME280;55168;51.120;17.024;2023-07-31T02:29:00;99830;;;16.2;100.0
68320;BME280;55168;51.120;17.024;2023-07-31T02:30:00;99830;;;16.2;100.0
68320;BME280;55168;51.120;17.024;2023-07-31T02:31:00;99830;;;16.2;100.0
68320;BME280;55168;51.120;17.024;2023-07-31T02:32:00;99830;;;16.2;100.0
68320;BME280;55168;51.120;17.024;2023-07-31T02:33:00;99830;;;16.2;100.0
68320;BME280;55168;51.120;17.024;2023-07-31T02:34:00;99820;;;16.2;100.0
68320;BME280;55168;51.120;17.024;2023-07-31T02:35:00;99830;;;16.2;100.0
68320;BME280;55168;51.120;17.024;2023-07-31T02:36:00;99830;;;16.2;100.0
68320;BME280;55168;51.120;17.024;2023-07-31T02:37:00;99820;;;16.2;100.0
68320;BME280;55168;51.120;17.024;2023-07-31T02:38:00;99830;;;16.2;100.0
68320;BME280;55168;51.120;17.024;2023-07-31T02:39:00;99820;;;16.2;100.0
68320;BME280;55168;51.120;17.024;2023-07-31T02:40:00;99820;;;16.2;100.0
68320;BME280;55168;51.120;17.024;2023-07-31T02:41:00;99820;;;16.2;100.0
68320;BME280;55168;51.120;17.024;2023-07-31T02:42:00;99820;;;16.2;100.0
68320;BME280;55168;51.120;17.024;2023-07-31T02:43:00;99820;;;16.2;100.0
68320;BME280;55168;51.120;17.024;2023-07-31T02:44:00;99820;;;16.2;100.0
68320;BME280;55168;51.120;17.024;2023-07-31T02:45:00;99810;;;16.2;100.0
68320;BME280;55168;51.120;17.024;2023-07-31T02:46:00;99820;;;16.2;100.0
68320;BME280;55168;51.120;17.024;2023-07-31T02:47:00;99820;;;16.2;100.0
68320;BME280;55168;51.120;17.024;2023-07-31T02:48:00;99810;;;16.2;100.0
68320;BME280;55168;51.120;17.024;2023-07-31T02:49:00;99810;;;16.2;100.0
68320;BME280;55168;51.120;17.024;2023-07-31T02:50:00;99810;;;16.2;100.0
68320;BME280;55168;51.120;17.024;2023-07-31T02:51:00;99810;;;16.2;100.0
68320;BME280;55168;51.120;17.024;2023-07-31T02:52:00;99820;;;16.2;100.0
68320;BME280;55168;51.120;17.024;2023-07-31T02:53:00;99820;;;16.2;100.0
68320;BME280;55168;51.120;17.024;2023-07-31T02:54:00;99820;;;16.1;100.0
68320;BME280;55168;51.120;17.024;2023-07-31T02:55:00;99820;;;16.1;100.0
68320;BME280;55168;51.120;17.024;2023-07-31T02:56:00;99810;;;16.1;100.0
68320;BME280;55168;51.120;17.024;2023-07-31T02:57:00;99820;;;16.1;100.0
68320;BME280;55168;51.120;17.024;2023-07-31T02:58:00;99810;;;16.1;100.0
68320;BME280;55168;51.120;17.024;2023-07-31T02:59:00;99810;;;16.1;100.0
68320;BME280;55168;51.120;17.024;2023-07-31T03:00:00;99810;;;16.0;100.0
68320;BME280;55168;51.120;17.024;2023-07-31T03:01:00;99820;;;16.0;100.0
68320;BME280;55168;51.120;17.024;2023-07-31T03:02:00;99820;;;16.0;100.0
68320;BME280;55168;51.120;17.024;2023-07-31T03:03:00;99810;;;16.0;100.0
68320;BME280;55168;51.120;17.024;2023-07-31T03:04:00;99820;;;16.0;100.0
68320;BME280;55168;51.120;17.024;2023-07-31T03:05:00;99820;;;16.0;100.0
68320;BME280;55168;51.120;17.024;2023-07-31T03:06:00;99820;;;16.0;100.0
68320;BME280;55168;51.120;17.024;2023-07-31T03:07:00;99820;;;16.0;100.0
68320;BME280;55168;51.120;17.024;2023-07-31T03:08:00;99820;;;15.9;100.0
68320;BME280;55168;51.120;17.024;2023-07-31T03:09:00;99820;;;15.9;100.0
68320;BME280;55168;51.120;17.024;2023-07-31T03:10:00;99820;;;15.9;100.0
68320;BME280;55168;51.120;17.024;2023-07-31T03:11:00;99820;;;15.9;100.0
68320;BME280;55168;51.120;17.024;2023-07-31T03:12:00;99820;;;15.9;100.0
68320;BME280;55168;51.120;17.024;2023-07-31T03:13:00;99820;;;15.9;100.0
68320;BME280;55168;51.120;17.024;2023-07-31T03:14:00;99820;;;15.9;100.0
68320;BME280;55168;51.120;17.024;2023-07-31T03:15:00;99820;;;15.9;100.0
68320;BME280;55168;51.120;17.024;2023-07-31T03:16:00;99820;;;15.9;100.0
68320;BME280;55168;51.120;17.024;2023-07-31T03:17:00;99820;;;15.9;100.0
68320;BME280;55168;51.120;17.024;2023-07-31T03:18:00;99820;;;15.8;100.0
68320;BME280;55168;51.120;17.024;2023-07-31T03:19:00;99830;;;15.8;100.0
68320;BME280;55168;51.120;17.024;2023-07-31T03:20:00;99820;;;15.8;100.0
68320;BME280;55168;51.120;17.024;2023-07-31T03:21:00;99820;;;15.8;100.0
68320;BME280;55168;51.120;17.024;2023-07-31T03:22:00;99820;;;15.8;100.0
68320;BME280;55168;51.120;17.024;2023-07-31T03:23:00;99820;;;15.8;100.0
68320;BME280;55168;51.120;17.024;2023-07-31T03:24:00;99820;;;15.8;100.0
68320;BME280;55168;51.120;17.024;2023-07-31T03:25:00;99820;;;15.8;100.0
68320;BME280;55168;51.120;17.024;2023-07-31T03:26:01;99820;;;15.8;100.0
68320;BME280;55168;51.120;17.024;2023-07-31T03:27:00;99820;;;15.7;100.0
68320;BME280;55168;51.120;17.024;2023-07-31T03:28:00;99820;;;15.8;100.0
68320;BME280;55168;51.120;17.024;2023-07-31T03:29:00;99830;;;15.8;100.0
68320;BME280;55168;51.120;17.024;2023-07-31T03:30:00;99820;;;15.8;100.0
68320;BME280;55168;51.120;17.024;2023-07-31T03:31:00;99820;;;15.7;100.0
68320;BME280;55168;51.120;17.024;2023-07-31T03:32:00;99820;;;15.7;100.0
68320;BME280;55168;51.120;17.024;2023-07-31T03:33:00;99820;;;15.7;100.0
68320;BME280;55168;51.120;17.024;2023-07-31T03:34:00;99820;;;15.7;100.0
68320;BME280;55168;51.120;17.024;2023-07-31T03:35:00;99820;;;15.6;100.0
68320;BME280;55168;51.120;17.024;2023-07-31T03:36:00;99830;;;15.6;100.0
68320;BME280;55168;51.120;17.024;2023-07-31T03:37:00;99830;;;15.6;100.0
68320;BME280;55168;51.120;17.024;2023-07-31T03:38:00;99830;;;15.6;100.0
68320;BME280;55168;51.120;17.024;2023-07-31T03:39:00;99830;;;15.6;100.0
68320;BME280;55168;51.120;17.024;2023-07-31T03:40:00;99830;;;15.6;100.0
68320;BME280;55168;51.120;17.024;2023-07-31T03:41:00;99830;;;15.6;100.0
68320;BME280;55168;51.120;17.024;2023-07-31T03:42:00;99830;;;15.6;100.0
68320;BME280;55168;51.120;17.024;2023-07-31T03:43:00;99830;;;15.5;100.0
68320;BME280;55168;51.120;17.024;2023-07-31T03:44:00;99830;;;15.5;100.0
68320;BME280;55168;51.120;17.024;2023-07-31T03:45:00;99830;;;15.5;100.0
68320;BME280;55168;51.120;17.024;2023-07-31T03:46:00;99830;;;15.5;100.0
68320;BME280;55168;51.120;17.024;2023-07-31T03:47:00;99830;;;15.5;100.0
68320;BME280;55168;51.120;17.024;2023-07-31T03:48:00;99830;;;15.5;100.0
68320;BME280;55168;51.120;17.024;2023-07-31T03:49:00;99830;;;15.5;100.0
68320;BME280;55168;51.120;17.024;2023-07-31T03:50:00;99830;;;15.5;100.0
68320;BME280;55168;51.120;17.024;2023-07-31T03:51:00;99830;;;15.5;100.0
68320;BME280;55168;51.120;17.024;2023-07-31T03:52:00;99830;;;15.5;100.0
68320;BME280;55168;51.120;17.024;2023-07-31T03:53:00;99830;;;15.5;100.0
68320;BME280;55168;51.120;17.024;2023-07-31T03:54:00;99830;;;15.5;100.0
68320;BME280;55168;51.120;17.024;2023-07-31T03:55:00;99830;;;15.6;100.0
68320;BME280;55168;51.120;17.024;2023-07-31T03:56:00;99820;;;15.6;100.0
68320;BME280;55168;51.120;17.024;2023-07-31T03:57:00;99830;;;15.6;100.0
68320;BME280;55168;51.120;17.024;2023-07-31T03:58:00;99820;;;15.6;100.0
68320;BME280;55168;51.120;17.024;2023-07-31T03:59:00;99830;;;15.6;100.0
68320;BME280;55168;51.120;17.024;2023-07-31T04:00:00;99820;;;15.6;100.0
68320;BME280;55168;51.120;17.024;2023-07-31T04:01:00;99830;;;15.6;100.0
68320;BME280;55168;51.120;17.024;2023-07-31T04:02:00;99820;;;15.6;100.0
68320;BME280;55168;51.120;17.024;2023-07-31T04:03:00;99820;;;15.5;100.0
68320;BME280;55168;51.120;17.024;2023-07-31T04:04:00;99820;;;15.5;100.0
68320;BME280;55168;51.120;17.024;2023-07-31T04:05:00;99820;;;15.4;100.0
68320;BME280;55168;51.120;17.024;2023-07-31T04:06:00;99820;;;15.4;100.0
68320;BME280;55168;51.120;17.024;2023-07-31T04:07:00;99820;;;15.4;100.0
68320;BME280;55168;51.120;17.024;2023-07-31T04:08:00;99820;;;15.4;100.0
68320;BME280;55168;51.120;17.024;2023-07-31T04:09:00;99820;;;15.4;100.0
68320;BME280;55168;51.120;17.024;2023-07-31T04:10:00;99820;;;15.4;100.0
68320;BME280;55168;51.120;17.024;2023-07-31T04:11:00;99820;;;15.4;100.0
68320;BME280;55168;51.120;17.024;2023-07-31T04:12:00;99820;;;15.4;100.0
68320;BME280;55168;51.120;17.024;2023-07-31T04:13:00;99820;;;15.4;100.0
68320;BME280;55168;51.120;17.024;2023-07-31T04:14:00;99830;;;15.4;100.0
68320;BME280;55168;51.120;17.024;2023-07-31T04:15:00;99820;;;15.4;100.0
68320;BME280;55168;51.120;17.024;2023-07-31T04:16:00;99820;;;15.4;100.0
68320;BME280;55168;51.120;17.024;2023-07-31T04:17:00;99820;;;15.4;100.0
68320;BME280;55168;51.120;17.024;2023-07-31T04:18:00;99830;;;15.5;100.0
68320;BME280;55168;51.120;17.024;2023-07-31T04:19:00;99830;;;15.5;100.0
68320;BME280;55168;51.120;17.024;2023-07-31T04:20:00;99830;;;15.5;100.0
68320;BME280;55168;51.120;17.024;2023-07-31T04:21:00;99830;;;15.6;100.0
68320;BME280;55168;51.120;17.024;2023-07-31T04:22:00;99820;;;15.6;100.0
68320;BME280;55168;51.120;17.024;2023-07-31T04:23:00;99820;;;15.6;100.0
68320;BME280;55168;51.120;17.024;2023-07-31T04:24:00;99820;;;15.6;100.0
68320;BME280;55168;51.120;17.024;2023-07-31T04:25:00;99820;;;15.6;100.0
68320;BME280;55168;51.120;17.024;2023-07-31T04:26:00;99820;;;15.6;100.0
68320;BME280;55168;51.120;17.024;2023-07-31T04:27:00;99820;;;15.6;100.0
68320;BME280;55168;51.120;17.024;2023-07-31T04:28:00;99820;;;15.6;100.0
68320;BME280;55168;51.120;17.024;2023-07-31T04:29:00;99820;;;15.7;100.0
68320;BME280;55168;51.120;17.024;2023-07-31T04:30:00;99820;;;15.7;100.0
68320;BME280;55168;51.120;17.024;2023-07-31T04:31:00;99820;;;15.8;100.0
68320;BME280;55168;51.120;17.024;2023-07-31T04:32:00;99820;;;15.8;100.0
68320;BME280;55168;51.120;17.024;2023-07-31T04:33:00;99820;;;15.8;100.0
68320;BME280;55168;51.120;17.024;2023-07-31T04:34:00;99820;;;15.8;100.0
68320;BME280;55168;51.120;17.024;2023-07-31T04:35:00;99820;;;15.9;100.0
68320;BME280;55168;51.120;17.024;2023-07-31T04:36:00;99830;;;15.9;100.0
68320;BME280;55168;51.120;17.024;2023-07-31T04:37:00;99820;;;15.9;100.0
68320;BME280;55168;51.120;17.024;2023-07-31T04:38:00;99830;;;16.0;100.0
68320;BME280;55168;51.120;17.024;2023-07-31T04:39:00;99830;;;16.0;100.0
68320;BME280;55168;51.120;17.024;2023-07-31T04:40:00;99830;;;16.1;100.0
68320;BME280;55168;51.120;17.024;2023-07-31T04:41:00;99830;;;16.1;100.0
68320;BME280;55168;51.120;17.024;2023-07-31T04:42:00;99830;;;16.2;100.0
68320;BME280;55168;51.120;17.024;2023-07-31T04:43:00;99830;;;16.2;100.0
68320;BME280;55168;51.120;17.024;2023-07-31T04:44:00;99820;;;16.3;100.0
68320;BME280;55168;51.120;17.024;2023-07-31T04:45:00;99820;;;16.4;100.0
68320;BME280;55168;51.120;17.024;2023-07-31T04:46:00;99830;;;16.4;100.0
68320;BME280;55168;51.120;17.024;2023-07-31T04:47:00;99820;;;16.4;100.0
68320;BME280;55168;51.120;17.024;2023-07-31T04:48:00;99820;;;16.5;100.0
68320;BME280;55168;51.120;17.024;2023-07-31T04:49:00;99820;;;16.6;100.0
68320;BME280;55168;51.120;17.024;2023-07-31T04:50:00;99820;;;16.7;100.0
68320;BME280;55168;51.120;17.024;2023-07-31T04:51:00;99810;;;16.7;100.0
68320;BME280;55168;51.120;17.024;2023-07-31T04:52:00;99820;;;16.8;100.0
68320;BME280;55168;51.120;17.024;2023-07-31T04:53:00;99810;;;16.8;100.0
68320;BME280;55168;51.120;17.024;2023-07-31T04:54:00;99810;;;16.8;100.0
68320;BME280;55168;51.120;17.024;2023-07-31T04:55:00;99810;;;16.9;100.0
68320;BME280;55168;51.120;17.024;2023-07-31T04:56:00;99810;;;16.9;100.0
68320;BME280;55168;51.120;17.024;2023-07-31T04:57:00;99810;;;16.9;100.0
68320;BME280;55168;51.120;17.024;2023-07-31T04:58:00;99810;;;17.0;100.0
68320;BME280;55168;51.120;17.024;2023-07-31T04:59:00;99800;;;17.0;100.0
68320;BME280;55168;51.120;17.024;2023-07-31T05:00:00;99800;;;17.0;100.0
68320;BME280;55168;51.120;17.024;2023-07-31T05:01:00;99810;;;17.0;100.0
68320;BME280;55168;51.120;17.024;2023-07-31T05:02:00;99800;;;17.1;100.0
68320;BME280;55168;51.120;17.024;2023-07-31T05:03:00;99810;;;17.2;100.0
68320;BME280;55168;51.120;17.024;2023-07-31T05:04:00;99810;;;17.2;100.0
68320;BME280;55168;51.120;17.024;2023-07-31T05:05:00;99810;;;17.3;100.0
68320;BME280;55168;51.120;17.024;2023-07-31T05:06:00;99800;;;17.3;100.0
68320;BME280;55168;51.120;17.024;2023-07-31T05:07:00;99810;;;17.4;100.0
68320;BME280;55168;51.120;17.024;2023-07-31T05:08:00;99810;;;17.5;100.0
68320;BME280;55168;51.120;17.024;2023-07-31T05:09:00;99810;;;17.5;100.0
68320;BME280;55168;51.120;17.024;2023-07-31T05:10:00;99810;;;17.6;100.0
68320;BME280;55168;51.120;17.024;2023-07-31T05:11:00;99810;;;17.6;100.0
68320;BME280;55168;51.120;17.024;2023-07-31T05:12:00;99810;;;17.6;100.0
68320;BME280;55168;51.120;17.024;2023-07-31T05:13:00;99810;;;17.7;100.0
68320;BME280;55168;51.120;17.024;2023-07-31T05:14:00;99810;;;17.7;100.0
68320;BME280;55168;51.120;17.024;2023-07-31T05:15:00;99800;;;17.7;100.0
68320;BME280;55168;51.120;17.024;2023-07-31T05:16:00;99800;;;17.8;100.0
68320;BME280;55168;51.120;17.024;2023-07-31T05:17:00;99810;;;17.8;100.0
68320;BME280;55168;51.120;17.024;2023-07-31T05:18:00;99800;;;17.8;100.0
68320;BME280;55168;51.120;17.024;2023-07-31T05:19:00;99810;;;17.9;100.0
68320;BME280;55168;51.120;17.024;2023-07-31T05:20:00;99800;;;17.9;100.0
68320;BME280;55168;51.120;17.024;2023-07-31T05:21:00;99800;;;18.0;100.0
68320;BME280;55168;51.120;17.024;2023-07-31T05:22:00;99800;;;18.0;100.0
68320;BME280;55168;51.120;17.024;2023-07-31T05:23:00;99800;;;18.1;100.0
68320;BME280;55168;51.120;17.024;2023-07-31T05:24:00;99810;;;18.1;100.0
68320;BME280;55168;51.120;17.024;2023-07-31T05:25:00;99810;;;18.2;100.0
68320;BME280;55168;51.120;17.024;2023-07-31T05:26:07;99800;;;18.2;100.0
68320;BME280;55168;51.120;17.024;2023-07-31T05:27:00;99810;;;18.3;100.0
68320;BME280;55168;51.120;17.024;2023-07-31T05:28:00;99810;;;18.3;100.0
68320;BME280;55168;51.120;17.024;2023-07-31T05:29:00;99800;;;18.3;100.0
68320;BME280;55168;51.120;17.024;2023-07-31T05:30:00;99800;;;18.3;100.0
68320;BME280;55168;51.120;17.024;2023-07-31T05:31:00;99800;;;18.4;100.0
68320;BME280;55168;51.120;17.024;2023-07-31T05:32:00;99800;;;18.4;100.0
68320;BME280;55168;51.120;17.024;2023-07-31T05:33:00;99800;;;18.4;100.0
68320;BME280;55168;51.120;17.024;2023-07-31T05:34:00;99800;;;18.4;100.0